Portland, Maine
Current Conditions -  °F | °C
As of 4:51 PM on Sunday 25 Jan 2015 (Local Time) from KPWM Reporting Station
Clear Clear  
Wind Chill: 14°   Ceiling: Unl
Heat Index: 25°   Visibility: 10mi
Dew Point:   Wind: 12mph
Humidity: 41%   Direction: 330°NNW
Pressure: 29.75"   Gusts: 22mph
Location:  43.66°N, 70.26°W
Report Text: KPWM 252151Z 33010G19KT 10SM CLR M04/M16 A2975 RMK AO2 PK WND 33026/2058 PRESRR SLP074 T10391156 $
Loading
Personal Weather Stations






























Interactive Weather Map New forecast layout! Learn more

10-Day Weather Forecast

Advertisements
Track Severe Weather on mobile